createdAt,value
2023-10-23T00:00:56.299Z,6.46
2023-10-23T00:03:24.552Z,9.69
2023-10-23T00:05:52.881Z,10.26
2023-10-23T00:08:21.248Z,8.74
2023-10-23T00:10:50.065Z,7.41
2023-10-23T00:13:18.145Z,7.03
2023-10-23T00:15:46.818Z,7.22
2023-10-23T00:18:15.003Z,7.41
2023-10-23T00:20:43.567Z,6.46
2023-10-23T00:23:11.859Z,9.50
2023-10-23T00:25:40.219Z,8.93
2023-10-23T00:28:08.949Z,9.69
2023-10-23T00:30:37.389Z,10.26
2023-10-23T00:33:05.541Z,6.46
2023-10-23T00:35:33.965Z,8.17
2023-10-23T00:38:02.235Z,7.60
2023-10-23T00:40:32.105Z,11.02
2023-10-23T00:42:59.052Z,8.36
2023-10-23T00:45:27.523Z,7.79
2023-10-23T00:47:56.468Z,8.74
2023-10-23T00:50:24.388Z,7.79
2023-10-23T00:52:53.046Z,7.79
2023-10-23T00:55:21.192Z,6.27
2023-10-23T00:57:49.683Z,7.41
2023-10-23T01:00:18.550Z,6.84
2023-10-23T01:02:46.356Z,7.22
2023-10-23T01:05:14.749Z,7.03
2023-10-23T01:07:43.338Z,9.50
2023-10-23T01:10:11.634Z,6.46
2023-10-23T01:12:41.610Z,6.46
2023-10-23T01:15:11.614Z,8.17
2023-10-23T01:17:41.551Z,7.79
2023-10-23T01:20:15.695Z,9.50
2023-10-23T01:22:46.078Z,9.12
2023-10-23T01:25:17.623Z,11.59
2023-10-23T01:27:47.454Z,15.01
2023-10-23T01:30:17.810Z,8.17
2023-10-23T01:32:48.628Z,7.22
2023-10-23T01:35:18.504Z,10.26
2023-10-23T01:37:48.519Z,9.69
2023-10-23T01:40:19.634Z,10.64
2023-10-23T01:42:50.272Z,6.46
2023-10-23T01:45:20.492Z,10.83
2023-10-23T01:47:50.591Z,7.41
2023-10-23T01:50:20.498Z,8.74
2023-10-23T01:52:50.298Z,9.50
2023-10-23T01:55:20.166Z,11.59
2023-10-23T01:57:50.116Z,8.36
2023-10-23T02:00:20.042Z,11.59
2023-10-23T02:02:49.921Z,13.68
2023-10-23T02:05:19.958Z,7.22
2023-10-23T02:07:49.816Z,7.22
2023-10-23T02:10:18.192Z,7.79
2023-10-23T02:12:46.674Z,11.59
2023-10-23T02:15:15.159Z,14.06
2023-10-23T02:17:43.589Z,9.12
2023-10-23T02:20:13.521Z,8.74
2023-10-23T02:22:43.352Z,5.89
2023-10-23T02:25:11.864Z,7.03
2023-10-23T02:27:40.235Z,7.98
2023-10-23T02:30:09.570Z,11.02
2023-10-23T02:32:39.808Z,11.02
2023-10-23T02:35:09.980Z,7.60
2023-10-23T02:37:39.834Z,7.60
2023-10-23T02:40:11.853Z,11.02
2023-10-23T02:42:41.750Z,6.84
2023-10-23T02:45:11.724Z,9.31
2023-10-23T02:47:41.586Z,7.60
2023-10-23T02:50:12.183Z,8.55
2023-10-23T02:52:41.964Z,9.69
2023-10-23T02:55:12.116Z,8.17
2023-10-23T02:57:41.971Z,7.41
2023-10-23T03:00:14.068Z,9.12
2023-10-23T03:02:45.755Z,7.98
2023-10-23T03:05:17.461Z,11.02
2023-10-23T03:07:48.082Z,8.74
2023-10-23T03:10:18.006Z,8.93
2023-10-23T03:12:48.038Z,10.83
2023-10-23T03:15:18.149Z,13.30
2023-10-23T03:17:48.045Z,9.88
2023-10-23T03:20:18.085Z,8.36
2023-10-23T03:22:48.053Z,7.41
2023-10-23T03:25:18.121Z,7.22
2023-10-23T03:27:47.970Z,8.74
2023-10-23T03:30:17.862Z,9.50
2023-10-23T03:32:47.785Z,8.36
2023-10-23T03:35:17.898Z,8.93
2023-10-23T03:37:47.828Z,10.07
2023-10-23T03:40:17.930Z,8.74
2023-10-23T03:42:52.219Z,8.93
2023-10-23T03:45:22.136Z,7.60
2023-10-23T03:47:52.033Z,7.98
2023-10-23T03:50:21.923Z,9.12
2023-10-23T03:52:51.761Z,10.45
2023-10-23T03:55:21.710Z,8.55
2023-10-23T03:57:51.743Z,8.93
2023-10-23T04:00:21.762Z,8.17
2023-10-23T04:02:53.485Z,7.98
2023-10-23T04:05:23.391Z,7.98
2023-10-23T04:07:53.273Z,6.84
2023-10-23T04:10:23.195Z,10.26
2023-10-23T04:12:53.235Z,8.17
2023-10-23T04:15:23.210Z,7.03
2023-10-23T04:17:53.301Z,7.22
2023-10-23T04:20:23.223Z,8.74
2023-10-23T04:22:53.191Z,11.02
2023-10-23T04:25:23.080Z,8.55
2023-10-23T04:27:51.524Z,6.65
2023-10-23T04:30:19.978Z,6.84
2023-10-23T04:32:48.467Z,6.27
2023-10-23T04:35:16.828Z,8.93
2023-10-23T04:37:45.332Z,6.46
2023-10-23T04:40:14.061Z,7.22
2023-10-23T04:42:42.056Z,6.08
2023-10-23T04:45:11.135Z,6.46
2023-10-23T04:47:38.788Z,6.46
2023-10-23T04:50:09.717Z,6.27
2023-10-23T04:52:39.855Z,5.13
2023-10-23T04:55:07.956Z,4.75
2023-10-23T04:57:35.450Z,5.32
2023-10-23T05:00:05.967Z,5.32
2023-10-23T05:02:36.317Z,5.13
2023-10-23T05:05:07.787Z,10.26
2023-10-23T05:07:38.248Z,7.60
2023-10-23T05:10:09.961Z,5.70
2023-10-23T05:12:40.872Z,7.03
2023-10-23T05:15:10.801Z,5.51
2023-10-23T05:17:40.827Z,8.36
2023-10-23T05:20:13.793Z,5.89
2023-10-23T05:22:43.766Z,7.22
2023-10-23T05:25:13.665Z,5.70
2023-10-23T05:27:42.247Z,9.12
2023-10-23T05:30:10.779Z,7.22
2023-10-23T05:32:39.313Z,5.51
2023-10-23T05:35:08.590Z,7.79
2023-10-23T05:37:36.641Z,6.46
2023-10-23T05:40:10.741Z,7.60
2023-10-23T05:42:42.189Z,6.84
2023-10-23T05:45:12.074Z,8.93
2023-10-23T05:47:41.974Z,8.74
2023-10-23T05:50:12.023Z,7.22
2023-10-23T05:52:41.860Z,8.93
2023-10-23T05:55:11.793Z,7.03
2023-10-23T05:57:41.847Z,6.46
2023-10-23T06:00:16.172Z,9.50
2023-10-23T06:02:46.066Z,9.69
2023-10-23T06:05:16.191Z,7.79
2023-10-23T06:07:46.262Z,8.36
2023-10-23T06:10:16.306Z,11.40
2023-10-23T06:12:46.288Z,7.41
2023-10-23T06:15:16.296Z,8.93
2023-10-23T06:17:46.323Z,9.12
2023-10-23T06:20:16.253Z,8.17
2023-10-23T06:22:46.298Z,10.64
2023-10-23T06:25:16.312Z,10.45
2023-10-23T06:27:46.799Z,8.93
2023-10-23T06:30:16.766Z,8.93
2023-10-23T06:32:46.736Z,9.12
2023-10-23T06:35:17.721Z,9.31
2023-10-23T06:37:49.498Z,12.73
2023-10-23T06:40:19.357Z,11.02
2023-10-23T06:42:49.222Z,9.88
2023-10-23T06:45:19.308Z,11.40
2023-10-23T06:47:50.547Z,8.93
2023-10-23T06:50:20.939Z,11.59
2023-10-23T06:52:50.771Z,11.78
2023-10-23T06:55:20.295Z,13.30
2023-10-23T06:57:50.154Z,18.62
2023-10-23T07:00:21.048Z,15.39
2023-10-23T07:02:51.348Z,9.88
2023-10-23T07:05:20.863Z,15.39
2023-10-23T07:07:50.719Z,10.83
2023-10-23T07:10:21.378Z,10.26
2023-10-23T07:12:50.757Z,15.01
2023-10-23T07:15:20.794Z,16.91
2023-10-23T07:17:50.864Z,15.01
2023-10-23T07:20:20.724Z,12.16
2023-10-23T07:22:50.573Z,15.39
2023-10-23T07:25:20.433Z,19.00
2023-10-23T07:27:51.001Z,13.87
2023-10-23T07:30:20.609Z,12.16
2023-10-23T07:32:50.917Z,20.71
2023-10-23T07:35:21.678Z,17.29
2023-10-23T07:37:50.902Z,14.25
2023-10-23T07:40:20.837Z,15.96
2023-10-23T07:42:50.949Z,15.20
2023-10-23T07:45:21.033Z,16.53
2023-10-23T07:47:51.884Z,16.91
2023-10-23T07:50:22.440Z,14.63
2023-10-23T07:52:52.720Z,14.06
2023-10-23T07:55:22.753Z,14.82
2023-10-23T07:57:52.564Z,14.44
2023-10-23T08:00:22.206Z,14.63
2023-10-23T08:02:52.221Z,17.29
2023-10-23T08:05:22.630Z,22.80
2023-10-23T08:07:52.497Z,19.95
2023-10-23T08:10:22.102Z,15.96
2023-10-23T08:12:50.583Z,12.73
2023-10-23T08:15:19.073Z,15.58
2023-10-23T08:17:47.443Z,16.91
2023-10-23T08:20:15.685Z,13.87
2023-10-23T08:22:44.615Z,15.77
2023-10-23T08:25:12.499Z,17.10
2023-10-23T08:27:40.987Z,15.39
2023-10-23T08:30:10.213Z,13.11
2023-10-23T08:32:49.972Z,15.58
2023-10-23T08:35:23.243Z,16.53
2023-10-23T08:37:53.171Z,12.54
2023-10-23T08:40:24.077Z,14.25
2023-10-23T08:42:54.345Z,15.58
2023-10-23T08:45:24.519Z,15.77
2023-10-23T08:47:54.569Z,15.77
2023-10-23T08:50:26.597Z,17.48
2023-10-23T08:53:00.527Z,17.86
2023-10-23T08:55:30.658Z,14.44
2023-10-23T08:58:02.953Z,17.48
2023-10-23T09:00:34.163Z,12.54
2023-10-23T09:03:06.477Z,15.77
2023-10-23T09:05:36.578Z,16.53
2023-10-23T09:08:06.068Z,17.86
2023-10-23T09:10:33.192Z,15.20
2023-10-23T09:13:02.346Z,15.58
2023-10-23T09:15:29.989Z,15.39
2023-10-23T09:18:00.188Z,18.24
2023-10-23T09:20:30.238Z,14.25
2023-10-23T09:23:00.963Z,16.72
2023-10-23T09:25:30.794Z,15.58
2023-10-23T09:28:01.278Z,20.71
2023-10-23T09:30:31.778Z,13.11
2023-10-23T09:33:01.776Z,15.39
2023-10-23T09:35:32.352Z,15.77
2023-10-23T09:38:16.506Z,18.05
2023-10-23T09:40:46.634Z,18.05
2023-10-23T09:43:16.662Z,19.57
2023-10-23T09:45:48.897Z,20.14
2023-10-23T09:48:21.115Z,21.28
2023-10-23T09:50:52.412Z,22.99
2023-10-23T09:53:23.067Z,19.76
2023-10-23T09:55:56.326Z,16.15
2023-10-23T09:58:33.624Z,18.05
2023-10-23T10:01:09.538Z,14.44
2023-10-23T10:03:43.600Z,17.10
2023-10-23T10:06:24.545Z,18.62
2023-10-23T10:08:56.951Z,15.58
2023-10-23T10:11:28.274Z,16.53
2023-10-23T10:13:58.878Z,16.91
2023-10-23T10:16:27.476Z,15.39
2023-10-23T10:18:57.187Z,16.53
2023-10-23T10:21:29.344Z,12.73
2023-10-23T10:24:01.578Z,17.10
2023-10-23T10:26:34.929Z,15.77
2023-10-23T10:29:04.834Z,16.15
2023-10-23T10:32:14.160Z,15.39
2023-10-23T10:34:46.931Z,14.63
2023-10-23T10:39:51.943Z,14.25
2023-10-23T10:42:30.253Z,11.21
2023-10-23T10:45:14.504Z,12.73
2023-10-23T10:47:55.801Z,17.86
2023-10-23T10:50:39.939Z,10.83
2023-10-23T10:53:15.706Z,9.88
2023-10-23T10:55:46.999Z,12.16
2023-10-23T10:58:20.245Z,12.92
2023-10-23T11:00:51.776Z,13.30
2023-10-23T11:03:21.645Z,12.35
2023-10-23T11:05:50.683Z,12.73
2023-10-23T11:08:18.458Z,9.88
2023-10-23T11:10:47.510Z,13.49
2023-10-23T11:13:16.965Z,10.83
2023-10-23T11:15:48.115Z,12.92
2023-10-23T11:18:18.239Z,9.50
2023-10-23T11:20:49.544Z,9.12
2023-10-23T11:23:22.989Z,13.11
2023-10-23T11:25:55.754Z,10.83
2023-10-23T11:28:26.703Z,10.83
2023-10-23T11:31:01.093Z,13.68
2023-10-23T11:33:31.495Z,9.50
2023-10-23T11:36:07.225Z,12.54
2023-10-23T11:38:39.453Z,10.07
2023-10-23T11:41:10.000Z,10.07
2023-10-23T11:43:39.371Z,11.21
2023-10-23T11:46:09.568Z,10.07
2023-10-23T11:48:39.703Z,8.93
2023-10-23T11:51:10.899Z,12.54
2023-10-23T11:53:38.051Z,13.49
2023-10-23T11:56:06.522Z,12.54
2023-10-23T11:58:34.893Z,13.68
2023-10-23T12:01:04.381Z,10.83
2023-10-23T12:03:31.852Z,9.88
2023-10-23T12:06:00.392Z,10.64
2023-10-23T12:08:28.485Z,8.93
2023-10-23T12:10:56.889Z,10.64
2023-10-23T12:13:26.341Z,8.93
2023-10-23T12:15:53.798Z,9.88
2023-10-23T12:18:24.410Z,9.69
2023-10-23T12:20:53.475Z,10.07
2023-10-23T12:23:22.196Z,10.26
2023-10-23T12:25:50.504Z,8.93
2023-10-23T12:28:18.786Z,11.21
2023-10-23T12:30:47.410Z,9.69
2023-10-23T12:33:23.643Z,8.17
2023-10-23T12:35:55.842Z,9.69
2023-10-23T12:38:25.806Z,10.26
2023-10-23T12:40:55.959Z,9.12
2023-10-23T12:43:26.819Z,10.83
2023-10-23T12:45:56.830Z,9.69
2023-10-23T12:48:27.242Z,11.02
2023-10-23T12:50:57.414Z,9.88
2023-10-23T12:53:27.376Z,8.36
2023-10-23T12:55:57.299Z,9.69
2023-10-23T12:58:27.379Z,9.88
2023-10-23T13:00:57.319Z,13.30
2023-10-23T13:03:27.541Z,8.55
2023-10-23T13:05:57.375Z,11.40
2023-10-23T13:08:27.334Z,9.88
2023-10-23T13:10:57.205Z,11.78
2023-10-23T13:13:27.410Z,10.83
2023-10-23T13:15:57.491Z,9.88
2023-10-23T13:18:27.527Z,10.45
2023-10-23T13:21:32.236Z,10.07
2023-10-23T13:23:48.769Z,9.31
2023-10-23T13:26:18.744Z,9.88
2023-10-23T13:28:49.530Z,10.83
2023-10-23T13:31:19.813Z,9.88
2023-10-23T13:33:50.561Z,9.12
2023-10-23T13:36:20.502Z,8.36
2023-10-23T13:38:50.424Z,10.07
2023-10-23T13:41:20.300Z,9.31
2023-10-23T13:43:50.213Z,8.17
2023-10-23T13:46:20.116Z,8.55
2023-10-23T13:48:50.166Z,13.68
2023-10-23T13:51:20.141Z,9.88
2023-10-23T13:53:48.604Z,11.02
2023-10-23T13:56:16.889Z,10.64
2023-10-23T13:58:46.498Z,10.64
2023-10-23T14:01:15.366Z,9.88
2023-10-23T14:03:46.118Z,9.12
2023-10-23T14:06:13.480Z,10.26
2023-10-23T14:09:39.479Z,10.26
2023-10-23T14:11:59.396Z,10.26
2023-10-23T14:14:24.655Z,11.59
2023-10-23T14:16:54.652Z,8.36
2023-10-23T14:19:38.142Z,9.88
2023-10-23T14:22:13.193Z,11.59
2023-10-23T14:24:43.204Z,9.31
2023-10-23T14:27:13.150Z,9.69
2023-10-23T14:29:43.344Z,9.31
2023-10-23T14:32:13.490Z,9.88
2023-10-23T14:34:43.487Z,11.21
2023-10-23T14:37:13.462Z,11.02
2023-10-23T14:39:43.519Z,10.07
2023-10-23T14:42:13.318Z,11.59
2023-10-23T14:44:43.832Z,9.31
2023-10-23T14:47:13.948Z,9.69
2023-10-23T14:49:44.151Z,10.64
2023-10-23T14:52:14.452Z,10.26
2023-10-23T14:54:44.451Z,10.26
2023-10-23T14:57:14.508Z,10.45
2023-10-23T14:59:44.549Z,8.93
2023-10-23T15:02:14.614Z,9.50
2023-10-23T15:04:44.630Z,11.02
2023-10-23T15:07:15.170Z,9.50
2023-10-23T15:09:45.095Z,10.64
2023-10-23T15:12:14.959Z,8.74
2023-10-23T15:14:45.754Z,10.45
2023-10-23T15:17:15.728Z,8.74
2023-10-23T15:19:45.606Z,9.50
2023-10-23T15:22:15.746Z,9.50
2023-10-23T15:24:45.665Z,9.31
2023-10-23T15:27:15.764Z,9.88
2023-10-23T15:29:45.903Z,10.64
2023-10-23T15:32:16.663Z,10.26
2023-10-23T15:34:46.932Z,10.26
2023-10-23T15:37:17.556Z,11.40
2023-10-23T15:39:47.650Z,10.26
2023-10-23T15:42:17.566Z,8.74
2023-10-23T15:44:47.697Z,11.78
2023-10-23T15:47:17.658Z,8.93
2023-10-23T15:49:47.661Z,10.26
2023-10-23T15:52:17.606Z,11.21
2023-10-23T15:54:47.622Z,8.74
2023-10-23T15:57:17.543Z,9.31
2023-10-23T15:59:47.486Z,10.64
2023-10-23T16:02:18.450Z,9.69
2023-10-23T16:04:48.798Z,10.07
2023-10-23T16:07:16.744Z,13.68
2023-10-23T16:09:45.234Z,12.35
2023-10-23T16:12:13.538Z,15.96
2023-10-23T16:14:56.038Z,14.63
2023-10-23T16:17:26.952Z,18.05
2023-10-23T16:19:56.972Z,16.91
2023-10-23T16:22:27.063Z,12.35
2023-10-23T16:24:57.199Z,15.20
2023-10-23T16:27:27.193Z,12.35
2023-10-23T16:29:57.215Z,14.63
2023-10-23T16:32:27.472Z,14.44
2023-10-23T16:35:00.210Z,15.96
2023-10-23T16:37:30.135Z,13.87
2023-10-23T16:40:01.077Z,16.15
2023-10-23T16:42:31.039Z,13.68
2023-10-23T16:45:01.199Z,17.10
2023-10-23T16:47:31.499Z,13.49
2023-10-23T16:50:01.540Z,18.81
2023-10-23T16:52:32.207Z,17.29
2023-10-23T16:55:05.859Z,15.96
2023-10-23T16:57:33.991Z,16.15
2023-10-23T17:00:02.480Z,15.39
2023-10-23T17:02:30.467Z,17.86
2023-10-23T17:04:59.203Z,16.91
2023-10-23T17:07:31.088Z,17.48
2023-10-23T17:10:00.243Z,19.76
2023-10-23T17:12:30.219Z,19.00
2023-10-23T17:15:00.712Z,17.67
2023-10-23T17:17:30.750Z,17.10
2023-10-23T17:19:59.310Z,17.29
2023-10-23T17:22:27.591Z,19.00
2023-10-23T17:24:56.036Z,21.47
2023-10-23T17:27:24.388Z,18.62
2023-10-23T17:29:52.935Z,18.24
2023-10-23T17:32:21.356Z,18.05
2023-10-23T17:34:49.604Z,20.90
2023-10-23T17:37:18.094Z,20.14
2023-10-23T17:39:46.481Z,24.13
2023-10-23T17:42:14.988Z,19.95
2023-10-23T17:44:43.285Z,24.70
2023-10-23T17:47:11.764Z,19.38
2023-10-23T17:49:40.384Z,21.28
2023-10-23T17:52:08.574Z,21.47
2023-10-23T17:54:38.645Z,22.23
2023-10-23T17:57:08.652Z,21.66
2023-10-23T17:59:36.841Z,20.33
2023-10-23T18:02:05.543Z,20.71
2023-10-23T18:04:33.677Z,23.18
2023-10-23T18:07:04.213Z,22.42
2023-10-23T18:09:34.169Z,20.71
2023-10-23T18:12:04.572Z,22.23
2023-10-23T18:14:34.357Z,23.75
2023-10-23T18:17:04.791Z,24.70
2023-10-23T18:19:34.752Z,20.14
2023-10-23T18:22:04.730Z,20.90
2023-10-23T18:24:34.595Z,21.28
2023-10-23T18:27:04.605Z,22.04
2023-10-23T18:29:35.824Z,23.37
2023-10-23T18:32:05.920Z,18.24
2023-10-23T18:34:40.109Z,21.09
2023-10-23T18:37:09.908Z,21.09
2023-10-23T18:39:40.045Z,29.07
2023-10-23T18:42:10.296Z,20.52
2023-10-23T18:44:44.637Z,26.03
2023-10-23T18:47:16.094Z,19.95
2023-10-23T18:49:48.979Z,19.19
2023-10-23T18:52:19.558Z,20.52
2023-10-23T18:54:49.523Z,21.85
2023-10-23T18:57:19.434Z,19.38
2023-10-23T18:59:49.780Z,18.81
2023-10-23T19:02:19.725Z,18.43
2023-10-23T19:04:49.646Z,20.52
2023-10-23T19:07:21.333Z,21.66
2023-10-23T19:09:57.366Z,20.52
2023-10-23T19:12:27.448Z,21.09
2023-10-23T19:14:57.432Z,20.52
2023-10-23T19:17:39.719Z,22.04
2023-10-23T19:20:13.933Z,22.42
2023-10-23T19:22:43.765Z,20.33
2023-10-23T19:25:13.924Z,19.38
2023-10-23T19:27:44.071Z,21.47
2023-10-23T19:30:14.643Z,21.28
2023-10-23T19:32:46.262Z,20.14
2023-10-23T19:35:17.464Z,22.80
2023-10-23T19:37:47.893Z,18.62
2023-10-23T19:40:18.777Z,20.52
2023-10-23T19:42:52.427Z,20.33
2023-10-23T19:45:22.895Z,17.29
2023-10-23T19:47:53.686Z,22.23
2023-10-23T19:50:24.412Z,22.23
2023-10-23T19:52:56.912Z,21.66
2023-10-23T19:55:43.117Z,20.90
2023-10-23T19:58:13.272Z,20.90
2023-10-23T20:00:41.130Z,19.76
2023-10-23T20:03:09.562Z,17.86
2023-10-23T20:05:38.284Z,17.10
2023-10-23T20:08:07.210Z,19.57
2023-10-23T20:10:37.656Z,21.85
2023-10-23T20:13:06.121Z,21.85
2023-10-23T20:15:34.640Z,19.76
2023-10-23T20:18:03.560Z,22.42
2023-10-23T20:20:31.347Z,22.80
2023-10-23T20:23:00.187Z,19.38
2023-10-23T20:25:31.579Z,19.38
2023-10-23T20:28:05.383Z,20.71
2023-10-23T20:30:35.349Z,20.71
2023-10-23T20:33:05.498Z,20.14
2023-10-23T20:35:35.531Z,22.61
2023-10-23T20:38:05.403Z,20.14
2023-10-23T20:40:39.787Z,21.66
2023-10-23T20:43:09.759Z,17.48
2023-10-23T20:45:39.671Z,19.00
2023-10-23T20:48:09.582Z,22.23
2023-10-23T20:50:41.136Z,25.84
2023-10-23T20:53:10.923Z,20.90
2023-10-23T20:55:41.094Z,21.28
2023-10-23T20:58:11.077Z,22.99
2023-10-23T21:00:41.053Z,18.05
2023-10-23T21:03:11.651Z,22.42
2023-10-23T21:05:42.092Z,21.47
2023-10-23T21:08:12.140Z,17.29
2023-10-23T21:10:42.179Z,21.66
2023-10-23T21:13:12.153Z,25.27
2023-10-23T21:15:41.971Z,21.09
2023-10-23T21:18:11.824Z,21.09
2023-10-23T21:20:41.857Z,22.61
2023-10-23T21:23:11.822Z,20.52
2023-10-23T21:25:41.732Z,20.71
2023-10-23T21:28:11.750Z,20.52
2023-10-23T21:30:41.777Z,21.66
2023-10-23T21:33:11.644Z,21.09
2023-10-23T21:35:41.560Z,21.66
2023-10-23T21:38:11.455Z,23.18
2023-10-23T21:40:48.380Z,24.89
2023-10-23T21:43:19.598Z,19.38
2023-10-23T21:45:58.733Z,22.23
2023-10-23T21:48:39.760Z,19.19
2023-10-23T21:51:09.581Z,22.80
2023-10-23T21:53:40.077Z,18.43
2023-10-23T21:56:18.312Z,23.37
2023-10-23T21:59:11.274Z,17.67
2023-10-23T22:01:44.005Z,18.62
2023-10-23T22:04:14.348Z,18.81
2023-10-23T22:06:45.115Z,19.95
2023-10-23T22:09:14.637Z,17.86
2023-10-23T22:11:44.762Z,18.81
2023-10-23T22:14:13.405Z,18.24
2023-10-23T22:16:41.072Z,20.33
2023-10-23T22:19:09.533Z,19.19
2023-10-23T22:21:38.059Z,18.43
2023-10-23T22:24:07.484Z,17.29
2023-10-23T22:26:34.970Z,20.90
2023-10-23T22:29:04.943Z,18.62
2023-10-23T22:31:34.901Z,23.94
2023-10-23T22:34:04.928Z,21.85
2023-10-23T22:36:34.857Z,18.81
2023-10-23T22:39:04.776Z,19.19
2023-10-23T22:41:36.882Z,19.57
2023-10-23T22:44:07.525Z,17.86
2023-10-23T22:46:37.421Z,20.71
2023-10-23T22:49:07.330Z,19.95
2023-10-23T22:51:38.165Z,19.00
2023-10-23T22:54:08.940Z,19.00
2023-10-23T22:56:42.153Z,20.71
2023-10-23T22:59:14.390Z,19.76
2023-10-23T23:01:47.209Z,21.28
2023-10-23T23:04:18.011Z,18.62
2023-10-23T23:06:49.103Z,20.33
2023-10-23T23:09:20.290Z,20.90
2023-10-23T23:11:51.029Z,18.62
2023-10-23T23:14:21.940Z,18.43
2023-10-23T23:16:56.359Z,19.38
2023-10-23T23:19:30.894Z,15.01
2023-10-23T23:22:10.309Z,20.14
2023-10-23T23:24:40.586Z,19.95
2023-10-23T23:27:10.657Z,21.66
2023-10-23T23:29:40.538Z,21.66
2023-10-23T23:32:10.651Z,18.62
2023-10-23T23:34:40.928Z,20.33
2023-10-23T23:37:12.144Z,18.81
2023-10-23T23:39:41.984Z,21.09
2023-10-23T23:42:10.425Z,17.86
2023-10-23T23:44:38.973Z,18.05
2023-10-23T23:47:07.228Z,19.00
2023-10-23T23:49:35.794Z,23.18
2023-10-23T23:52:04.703Z,19.57
2023-10-23T23:54:33.271Z,15.77
2023-10-23T23:57:00.926Z,19.95
2023-10-23T23:59:29.608Z,16.91
